sensor_id;sensor_type;location;lat;lon;timestamp;P1;durP1;ratioP1;P2;durP2;ratioP2
57893;SDS011;43710;47.460;19.034;2023-02-28T04:58:31;14.10;;;8.65;;
57893;SDS011;43710;47.460;19.034;2023-02-28T05:01:34;13.65;;;8.20;;
57893;SDS011;43710;47.460;19.034;2023-02-28T05:04:38;13.02;;;8.23;;
57893;SDS011;43710;47.460;19.034;2023-02-28T05:07:40;11.75;;;7.95;;
57893;SDS011;43710;47.460;19.034;2023-02-28T05:10:42;13.82;;;7.87;;
57893;SDS011;43710;47.460;19.034;2023-02-28T05:13:45;12.77;;;8.40;;
57893;SDS011;43710;47.460;19.034;2023-02-28T05:16:47;12.57;;;8.27;;
57893;SDS011;43710;47.460;19.034;2023-02-28T05:19:49;12.45;;;8.00;;
57893;SDS011;43710;47.460;19.034;2023-02-28T05:22:57;12.52;;;7.90;;
57893;SDS011;43710;47.460;19.034;2023-02-28T05:26:02;12.20;;;7.43;;
57893;SDS011;43710;47.460;19.034;2023-02-28T05:29:05;16.25;;;8.15;;
57893;SDS011;43710;47.460;19.034;2023-02-28T05:32:11;12.32;;;8.05;;
57893;SDS011;43710;47.460;19.034;2023-02-28T05:35:13;12.98;;;8.07;;
57893;SDS011;43710;47.460;19.034;2023-02-28T05:38:16;10.57;;;7.65;;
57893;SDS011;43710;47.460;19.034;2023-02-28T05:41:19;11.63;;;7.72;;
57893;SDS011;43710;47.460;19.034;2023-02-28T05:44:23;11.75;;;7.85;;
57893;SDS011;43710;47.460;19.034;2023-02-28T05:47:25;10.32;;;7.25;;
57893;SDS011;43710;47.460;19.034;2023-02-28T05:50:27;13.60;;;8.15;;
57893;SDS011;43710;47.460;19.034;2023-02-28T05:53:30;13.13;;;8.48;;
57893;SDS011;43710;47.460;19.034;2023-02-28T05:56:33;11.80;;;8.85;;
57893;SDS011;43710;47.460;19.034;2023-02-28T05:59:37;15.23;;;9.10;;
57893;SDS011;43710;47.460;19.034;2023-02-28T06:02:41;13.85;;;8.85;;
57893;SDS011;43710;47.460;19.034;2023-02-28T06:05:44;14.68;;;9.13;;
57893;SDS011;43710;47.460;19.034;2023-02-28T06:08:46;11.70;;;8.35;;
57893;SDS011;43710;47.460;19.034;2023-02-28T06:11:49;14.15;;;9.10;;
57893;SDS011;43710;47.460;19.034;2023-02-28T06:14:51;13.88;;;8.95;;
57893;SDS011;43710;47.460;19.034;2023-02-28T06:17:53;12.52;;;7.90;;
57893;SDS011;43710;47.460;19.034;2023-02-28T06:20:58;15.15;;;8.82;;
57893;SDS011;43710;47.460;19.034;2023-02-28T06:24:00;12.65;;;8.15;;
57893;SDS011;43710;47.460;19.034;2023-02-28T06:27:03;12.37;;;7.72;;
57893;SDS011;43710;47.460;19.034;2023-02-28T06:30:07;13.38;;;8.02;;
57893;SDS011;43710;47.460;19.034;2023-02-28T06:33:09;12.20;;;7.43;;
57893;SDS011;43710;47.460;19.034;2023-02-28T06:36:13;13.05;;;7.57;;
57893;SDS011;43710;47.460;19.034;2023-02-28T06:39:18;12.77;;;7.87;;
57893;SDS011;43710;47.460;19.034;2023-02-28T06:42:22;13.88;;;8.25;;
57893;SDS011;43710;47.460;19.034;2023-02-28T06:45:26;13.18;;;8.77;;
57893;SDS011;43710;47.460;19.034;2023-02-28T06:48:28;15.15;;;8.15;;
57893;SDS011;43710;47.460;19.034;2023-02-28T06:51:31;12.63;;;8.70;;
57893;SDS011;43710;47.460;19.034;2023-02-28T06:54:33;14.07;;;8.38;;
57893;SDS011;43710;47.460;19.034;2023-02-28T06:57:35;14.07;;;8.48;;
57893;SDS011;43710;47.460;19.034;2023-02-28T07:00:39;14.87;;;9.05;;
57893;SDS011;43710;47.460;19.034;2023-02-28T07:03:41;16.12;;;9.07;;
57893;SDS011;43710;47.460;19.034;2023-02-28T07:06:43;13.23;;;9.07;;
57893;SDS011;43710;47.460;19.034;2023-02-28T07:09:45;12.55;;;8.07;;
57893;SDS011;43710;47.460;19.034;2023-02-28T07:12:47;12.50;;;8.27;;
57893;SDS011;43710;47.460;19.034;2023-02-28T07:15:54;19.00;;;8.35;;
57893;SDS011;43710;47.460;19.034;2023-02-28T07:18:56;15.50;;;7.68;;
57893;SDS011;43710;47.460;19.034;2023-02-28T07:21:58;11.18;;;8.00;;
57893;SDS011;43710;47.460;19.034;2023-02-28T07:25:01;12.90;;;7.70;;
57893;SDS011;43710;47.460;19.034;2023-02-28T07:28:04;11.27;;;7.43;;
57893;SDS011;43710;47.460;19.034;2023-02-28T07:31:06;11.85;;;7.60;;
57893;SDS011;43710;47.460;19.034;2023-02-28T07:34:09;9.85;;;7.28;;
57893;SDS011;43710;47.460;19.034;2023-02-28T07:37:12;14.27;;;7.55;;
57893;SDS011;43710;47.460;19.034;2023-02-28T07:40:14;14.52;;;7.25;;
57893;SDS011;43710;47.460;19.034;2023-02-28T07:43:17;12.35;;;7.80;;
57893;SDS011;43710;47.460;19.034;2023-02-28T07:46:19;12.32;;;7.93;;
57893;SDS011;43710;47.460;19.034;2023-02-28T07:49:24;11.93;;;8.23;;
57893;SDS011;43710;47.460;19.034;2023-02-28T07:52:28;10.20;;;7.07;;
57893;SDS011;43710;47.460;19.034;2023-02-28T07:55:32;11.98;;;7.20;;
57893;SDS011;43710;47.460;19.034;2023-02-28T07:58:34;12.37;;;7.55;;
57893;SDS011;43710;47.460;19.034;2023-02-28T08:01:37;13.07;;;7.45;;
57893;SDS011;43710;47.460;19.034;2023-02-28T08:04:41;14.35;;;7.60;;
57893;SDS011;43710;47.460;19.034;2023-02-28T08:07:44;10.63;;;6.90;;
57893;SDS011;43710;47.460;19.034;2023-02-28T08:10:47;10.40;;;7.12;;
57893;SDS011;43710;47.460;19.034;2023-02-28T08:13:49;12.05;;;7.20;;
57893;SDS011;43710;47.460;19.034;2023-02-28T08:16:54;13.57;;;7.97;;
57893;SDS011;43710;47.460;19.034;2023-02-28T08:19:57;10.57;;;6.68;;
57893;SDS011;43710;47.460;19.034;2023-02-28T08:22:59;12.98;;;7.37;;
57893;SDS011;43710;47.460;19.034;2023-02-28T08:26:02;9.85;;;7.20;;
57893;SDS011;43710;47.460;19.034;2023-02-28T08:29:05;12.32;;;7.22;;
57893;SDS011;43710;47.460;19.034;2023-02-28T08:32:08;11.73;;;7.30;;
57893;SDS011;43710;47.460;19.034;2023-02-28T08:35:29;11.90;;;7.62;;
57893;SDS011;43710;47.460;19.034;2023-02-28T08:38:32;11.18;;;6.30;;
57893;SDS011;43710;47.460;19.034;2023-02-28T08:41:34;10.00;;;7.03;;
57893;SDS011;43710;47.460;19.034;2023-02-28T08:44:37;13.68;;;7.45;;
57893;SDS011;43710;47.460;19.034;2023-02-28T08:47:39;11.02;;;7.35;;
57893;SDS011;43710;47.460;19.034;2023-02-28T08:50:42;11.27;;;6.65;;
57893;SDS011;43710;47.460;19.034;2023-02-28T08:53:49;11.12;;;6.95;;
57893;SDS011;43710;47.460;19.034;2023-02-28T08:56:51;10.52;;;7.30;;
57893;SDS011;43710;47.460;19.034;2023-02-28T08:59:53;9.88;;;6.47;;
57893;SDS011;43710;47.460;19.034;2023-02-28T09:02:56;12.15;;;6.62;;
57893;SDS011;43710;47.460;19.034;2023-02-28T09:05:59;10.18;;;6.75;;
57893;SDS011;43710;47.460;19.034;2023-02-28T09:09:06;12.02;;;6.62;;
57893;SDS011;43710;47.460;19.034;2023-02-28T09:12:09;10.43;;;7.45;;
57893;SDS011;43710;47.460;19.034;2023-02-28T09:15:11;10.80;;;6.85;;
57893;SDS011;43710;47.460;19.034;2023-02-28T09:18:14;12.68;;;7.82;;
57893;SDS011;43710;47.460;19.034;2023-02-28T09:21:18;10.60;;;6.93;;
57893;SDS011;43710;47.460;19.034;2023-02-28T09:24:21;10.70;;;6.70;;
57893;SDS011;43710;47.460;19.034;2023-02-28T09:27:23;9.63;;;6.97;;
57893;SDS011;43710;47.460;19.034;2023-02-28T09:30:26;13.77;;;7.25;;
57893;SDS011;43710;47.460;19.034;2023-02-28T09:33:28;11.43;;;6.65;;
57893;SDS011;43710;47.460;19.034;2023-02-28T09:36:31;9.85;;;6.25;;
57893;SDS011;43710;47.460;19.034;2023-02-28T09:39:45;12.05;;;7.03;;
57893;SDS011;43710;47.460;19.034;2023-02-28T09:42:48;9.25;;;6.30;;
57893;SDS011;43710;47.460;19.034;2023-02-28T09:45:54;9.55;;;6.25;;
57893;SDS011;43710;47.460;19.034;2023-02-28T09:49:36;9.18;;;6.62;;
57893;SDS011;43710;47.460;19.034;2023-02-28T09:52:39;11.70;;;7.28;;
57893;SDS011;43710;47.460;19.034;2023-02-28T09:55:44;10.93;;;7.00;;
57893;SDS011;43710;47.460;19.034;2023-02-28T10:02:16;8.45;;;6.53;;
57893;SDS011;43710;47.460;19.034;2023-02-28T10:05:27;10.07;;;6.70;;
57893;SDS011;43710;47.460;19.034;2023-02-28T10:08:36;9.52;;;6.30;;
57893;SDS011;43710;47.460;19.034;2023-02-28T10:11:45;10.25;;;6.43;;
57893;SDS011;43710;47.460;19.034;2023-02-28T10:14:53;14.60;;;7.40;;
57893;SDS011;43710;47.460;19.034;2023-02-28T10:18:02;12.10;;;6.28;;
57893;SDS011;43710;47.460;19.034;2023-02-28T10:21:15;16.25;;;6.93;;
57893;SDS011;43710;47.460;19.034;2023-02-28T10:24:47;10.48;;;6.50;;
57893;SDS011;43710;47.460;19.034;2023-02-28T10:27:58;11.10;;;7.22;;
57893;SDS011;43710;47.460;19.034;2023-02-28T10:31:12;12.23;;;7.15;;
57893;SDS011;43710;47.460;19.034;2023-02-28T10:34:21;10.60;;;6.90;;
57893;SDS011;43710;47.460;19.034;2023-02-28T10:37:24;9.75;;;7.15;;
57893;SDS011;43710;47.460;19.034;2023-02-28T10:40:29;10.23;;;6.30;;
57893;SDS011;43710;47.460;19.034;2023-02-28T10:43:38;10.98;;;7.43;;
57893;SDS011;43710;47.460;19.034;2023-02-28T10:46:42;9.82;;;6.72;;
57893;SDS011;43710;47.460;19.034;2023-02-28T10:49:46;11.15;;;6.62;;
57893;SDS011;43710;47.460;19.034;2023-02-28T10:52:50;9.77;;;6.12;;
57893;SDS011;43710;47.460;19.034;2023-02-28T11:02:30;10.27;;;6.37;;
57893;SDS011;43710;47.460;19.034;2023-02-28T11:05:38;8.93;;;6.60;;
57893;SDS011;43710;47.460;19.034;2023-02-28T11:08:43;12.13;;;5.95;;
57893;SDS011;43710;47.460;19.034;2023-02-28T11:11:48;12.05;;;6.15;;
57893;SDS011;43710;47.460;19.034;2023-02-28T11:15:34;9.77;;;6.45;;
57893;SDS011;43710;47.460;19.034;2023-02-28T11:18:27;9.18;;;6.72;;
57893;SDS011;43710;47.460;19.034;2023-02-28T11:21:34;11.15;;;6.57;;
57893;SDS011;43710;47.460;19.034;2023-02-28T11:24:43;13.93;;;6.45;;
57893;SDS011;43710;47.460;19.034;2023-02-28T11:27:50;11.45;;;7.05;;
57893;SDS011;43710;47.460;19.034;2023-02-28T11:34:25;13.95;;;6.78;;
57893;SDS011;43710;47.460;19.034;2023-02-28T11:37:29;10.55;;;6.55;;
57893;SDS011;43710;47.460;19.034;2023-02-28T11:47:03;11.05;;;6.57;;
57893;SDS011;43710;47.460;19.034;2023-02-28T11:53:46;11.02;;;6.85;;
57893;SDS011;43710;47.460;19.034;2023-02-28T12:03:56;10.98;;;6.90;;
57893;SDS011;43710;47.460;19.034;2023-02-28T12:07:12;9.63;;;6.50;;
57893;SDS011;43710;47.460;19.034;2023-02-28T12:10:29;11.02;;;7.78;;
57893;SDS011;43710;47.460;19.034;2023-02-28T12:20:41;13.50;;;7.70;;
57893;SDS011;43710;47.460;19.034;2023-02-28T12:27:27;13.20;;;7.28;;
57893;SDS011;43710;47.460;19.034;2023-02-28T12:30:35;14.45;;;7.12;;
57893;SDS011;43710;47.460;19.034;2023-02-28T12:33:48;10.40;;;6.78;;
57893;SDS011;43710;47.460;19.034;2023-02-28T12:36:55;9.73;;;6.45;;
57893;SDS011;43710;47.460;19.034;2023-02-28T12:40:04;10.10;;;6.85;;
57893;SDS011;43710;47.460;19.034;2023-02-28T12:43:12;15.02;;;6.65;;
57893;SDS011;43710;47.460;19.034;2023-02-28T12:46:17;9.40;;;5.60;;
57893;SDS011;43710;47.460;19.034;2023-02-28T12:49:30;9.05;;;6.40;;
57893;SDS011;43710;47.460;19.034;2023-02-28T12:55:48;11.23;;;5.82;;
57893;SDS011;43710;47.460;19.034;2023-02-28T12:59:11;11.50;;;6.05;;
57893;SDS011;43710;47.460;19.034;2023-02-28T13:05:49;9.65;;;6.10;;
57893;SDS011;43710;47.460;19.034;2023-02-28T13:09:11;9.20;;;6.22;;
57893;SDS011;43710;47.460;19.034;2023-02-28T13:12:15;10.68;;;5.95;;
57893;SDS011;43710;47.460;19.034;2023-02-28T13:15:20;11.70;;;6.50;;
57893;SDS011;43710;47.460;19.034;2023-02-28T13:18:38;12.20;;;6.32;;
57893;SDS011;43710;47.460;19.034;2023-02-28T13:21:44;10.00;;;6.32;;
57893;SDS011;43710;47.460;19.034;2023-02-28T13:24:50;13.60;;;6.30;;
57893;SDS011;43710;47.460;19.034;2023-02-28T13:27:54;9.60;;;6.12;;
57893;SDS011;43710;47.460;19.034;2023-02-28T13:31:00;11.43;;;6.47;;
57893;SDS011;43710;47.460;19.034;2023-02-28T13:34:13;9.15;;;6.10;;
57893;SDS011;43710;47.460;19.034;2023-02-28T13:40:31;8.52;;;5.85;;
57893;SDS011;43710;47.460;19.034;2023-02-28T13:47:19;9.40;;;5.87;;
57893;SDS011;43710;47.460;19.034;2023-02-28T13:50:27;9.60;;;6.28;;
57893;SDS011;43710;47.460;19.034;2023-02-28T13:53:41;9.52;;;5.65;;
57893;SDS011;43710;47.460;19.034;2023-02-28T14:00:43;9.98;;;5.68;;
57893;SDS011;43710;47.460;19.034;2023-02-28T14:07:03;10.40;;;5.45;;
57893;SDS011;43710;47.460;19.034;2023-02-28T14:10:06;9.43;;;5.40;;
57893;SDS011;43710;47.460;19.034;2023-02-28T14:16:47;11.70;;;5.60;;
57893;SDS011;43710;47.460;19.034;2023-02-28T14:19:51;8.93;;;5.12;;
57893;SDS011;43710;47.460;19.034;2023-02-28T14:23:10;9.70;;;5.53;;
57893;SDS011;43710;47.460;19.034;2023-02-28T14:33:25;7.87;;;4.90;;
57893;SDS011;43710;47.460;19.034;2023-02-28T14:36:36;10.32;;;5.93;;
57893;SDS011;43710;47.460;19.034;2023-02-28T14:39:41;8.23;;;6.15;;
57893;SDS011;43710;47.460;19.034;2023-02-28T14:42:54;9.15;;;5.53;;
57893;SDS011;43710;47.460;19.034;2023-02-28T14:46:04;10.82;;;4.93;;
57893;SDS011;43710;47.460;19.034;2023-02-28T14:49:13;10.73;;;5.90;;
57893;SDS011;43710;47.460;19.034;2023-02-28T14:52:23;9.05;;;5.40;;
57893;SDS011;43710;47.460;19.034;2023-02-28T14:55:30;8.68;;;5.57;;
57893;SDS011;43710;47.460;19.034;2023-02-28T14:58:34;9.15;;;5.45;;
57893;SDS011;43710;47.460;19.034;2023-02-28T15:01:36;8.95;;;6.30;;
57893;SDS011;43710;47.460;19.034;2023-02-28T15:04:38;11.77;;;6.32;;
57893;SDS011;43710;47.460;19.034;2023-02-28T15:07:44;12.75;;;6.10;;
57893;SDS011;43710;47.460;19.034;2023-02-28T15:11:05;9.25;;;5.78;;
57893;SDS011;43710;47.460;19.034;2023-02-28T15:14:17;8.93;;;5.80;;
57893;SDS011;43710;47.460;19.034;2023-02-28T15:17:22;10.63;;;6.00;;
57893;SDS011;43710;47.460;19.034;2023-02-28T15:20:26;11.27;;;5.68;;
57893;SDS011;43710;47.460;19.034;2023-02-28T15:23:28;11.60;;;6.50;;
57893;SDS011;43710;47.460;19.034;2023-02-28T15:26:32;11.57;;;5.97;;
57893;SDS011;43710;47.460;19.034;2023-02-28T15:29:43;13.07;;;6.62;;
57893;SDS011;43710;47.460;19.034;2023-02-28T15:36:16;27.45;;;7.57;;
57893;SDS011;43710;47.460;19.034;2023-02-28T15:39:24;12.27;;;7.40;;
57893;SDS011;43710;47.460;19.034;2023-02-28T15:42:29;10.55;;;7.20;;
57893;SDS011;43710;47.460;19.034;2023-02-28T15:45:33;11.40;;;7.75;;
57893;SDS011;43710;47.460;19.034;2023-02-28T15:48:44;14.45;;;7.82;;
57893;SDS011;43710;47.460;19.034;2023-02-28T15:51:53;11.27;;;7.50;;
57893;SDS011;43710;47.460;19.034;2023-02-28T15:58:10;14.43;;;7.65;;
57893;SDS011;43710;47.460;19.034;2023-02-28T16:01:24;11.50;;;7.82;;
57893;SDS011;43710;47.460;19.034;2023-02-28T16:04:28;13.02;;;8.23;;
57893;SDS011;43710;47.460;19.034;2023-02-28T16:07:34;13.75;;;7.47;;
57893;SDS011;43710;47.460;19.034;2023-02-28T16:10:40;15.60;;;8.27;;
57893;SDS011;43710;47.460;19.034;2023-02-28T16:13:43;12.75;;;8.50;;
57893;SDS011;43710;47.460;19.034;2023-02-28T16:16:46;15.07;;;8.40;;
57893;SDS011;43710;47.460;19.034;2023-02-28T16:19:51;13.05;;;8.15;;
57893;SDS011;43710;47.460;19.034;2023-02-28T16:22:54;11.35;;;8.23;;
57893;SDS011;43710;47.460;19.034;2023-02-28T16:25:56;12.05;;;7.70;;
57893;SDS011;43710;47.460;19.034;2023-02-28T16:28:58;15.18;;;8.68;;
57893;SDS011;43710;47.460;19.034;2023-02-28T16:32:01;13.00;;;8.05;;
57893;SDS011;43710;47.460;19.034;2023-02-28T16:35:09;17.65;;;8.88;;
57893;SDS011;43710;47.460;19.034;2023-02-28T16:38:12;13.30;;;8.32;;
57893;SDS011;43710;47.460;19.034;2023-02-28T16:41:16;12.57;;;8.70;;
